Time;durP1;ratioP1;P1;durP2;ratioP2;P2;SDS_P1;SDS_P2;PMS_P1;PMS_P2;Temp;Humidity;BMP_temperature;BMP_pressure;BME280_temperature;BME280_humidity;BME280_pressure;Samples;Min_cycle;Max_cycle;Signal;HPM_P1;HPM_P2
2023/12/05 00:02:13;;;;;;;1.80;1.50;;;15.30;60.00;;;;;;5102387;27;45303;-66
2023/12/05 00:04:42;;;;;;;2.75;1.75;;;15.30;60.00;;;;;;5094991;27;46986;-66
2023/12/05 00:07:09;;;;;;;2.45;1.65;;;15.30;60.00;;;;;;5095760;27;45094;-66
2023/12/05 00:09:35;;;;;;;2.58;1.63;;;15.30;59.70;;;;;;5095487;27;44611;-66
2023/12/05 00:12:02;;;;;;;2.45;1.85;;;15.30;60.10;;;;;;5103052;27;45152;-66
2023/12/05 00:14:29;;;;;;;2.45;1.80;;;15.30;59.90;;;;;;5092542;27;47433;-66
2023/12/05 00:16:56;;;;;;;1.73;1.60;;;15.30;60.20;;;;;;5097127;27;45113;-66
2023/12/05 00:19:24;;;;;;;2.15;1.60;;;15.30;60.50;;;;;;5103036;27;45126;-66
2023/12/05 00:21:51;;;;;;;2.40;1.67;;;15.30;60.60;;;;;;5091869;27;45195;-66
2023/12/05 00:24:17;;;;;;;2.22;1.70;;;15.30;60.50;;;;;;5097127;27;46190;-66
2023/12/05 00:26:44;;;;;;;2.33;1.75;;;15.30;60.40;;;;;;5094266;27;45294;-66
2023/12/05 00:29:11;;;;;;;1.65;1.55;;;15.30;60.70;;;;;;5087157;27;45094;-66
2023/12/05 00:31:38;;;;;;;2.17;1.63;;;15.30;60.80;;;;;;5100907;27;45050;-66
2023/12/05 00:34:05;;;;;;;2.20;1.75;;;15.30;61.00;;;;;;5099950;27;45239;-67
2023/12/05 00:36:33;;;;;;;1.65;1.50;;;15.30;60.90;;;;;;5089900;27;45135;-67
2023/12/05 00:38:59;;;;;;;2.22;1.65;;;15.30;60.80;;;;;;5090801;27;45067;-66
2023/12/05 00:41:26;;;;;;;2.20;1.50;;;15.30;61.00;;;;;;5090028;27;44801;-66
2023/12/05 00:43:53;;;;;;;2.53;1.75;;;15.30;62.10;;;;;;5099729;27;46143;-66
2023/12/05 00:46:21;;;;;;;1.67;1.58;;;15.30;61.20;;;;;;5086865;27;45223;-66
2023/12/05 00:48:47;;;;;;;1.88;1.50;;;15.40;61.30;;;;;;5103186;27;45173;-66
2023/12/05 00:51:14;;;;;;;2.25;1.65;;;15.30;61.30;;;;;;5097346;27;44795;-66
2023/12/05 00:53:42;;;;;;;2.05;1.58;;;15.30;61.10;;;;;;5095596;27;47055;-66
2023/12/05 00:56:11;;;;;;;2.45;1.50;;;15.40;61.20;;;;;;5097103;27;45051;-66
2023/12/05 00:58:38;;;;;;;2.38;1.73;;;15.30;61.00;;;;;;5101820;27;45082;-66
2023/12/05 01:01:05;;;;;;;2.28;1.70;;;15.30;61.20;;;;;;5100104;27;45248;-66
2023/12/05 01:03:32;;;;;;;1.95;1.50;;;15.30;61.10;;;;;;5093521;27;46208;-67
2023/12/05 01:05:59;;;;;;;2.30;1.77;;;15.40;61.20;;;;;;5091864;27;45100;-66
2023/12/05 01:08:25;;;;;;;1.98;1.70;;;15.40;61.30;;;;;;5095242;27;44678;-67
2023/12/05 01:10:53;;;;;;;2.78;1.88;;;15.30;61.10;;;;;;5103850;27;44892;-66
2023/12/05 01:13:20;;;;;;;2.67;1.52;;;15.30;61.40;;;;;;5093238;27;46187;-66
2023/12/05 01:15:46;;;;;;;2.05;1.70;;;15.30;61.50;;;;;;5090385;27;45197;-66
2023/12/05 01:18:13;;;;;;;2.15;1.65;;;15.30;62.20;;;;;;5093583;27;45193;-66
2023/12/05 01:20:40;;;;;;;2.90;1.95;;;15.30;61.30;;;;;;5098448;27;45130;-66
2023/12/05 01:23:06;;;;;;;3.17;1.83;;;15.30;61.30;;;;;;5093824;27;45148;-67
2023/12/05 01:25:33;;;;;;;2.20;1.70;;;15.30;61.50;;;;;;5098972;27;45587;-66
2023/12/05 01:28:02;;;;;;;1.98;1.60;;;15.30;61.60;;;;;;5106363;27;45181;-66
2023/12/05 01:30:29;;;;;;;2.03;1.80;;;15.30;61.60;;;;;;5105659;27;44654;-65
2023/12/05 01:32:56;;;;;;;3.22;1.88;;;15.40;61.80;;;;;;5094959;27;45145;-66
2023/12/05 01:35:22;;;;;;;2.38;1.85;;;15.30;61.10;;;;;;5096441;27;45266;-65
2023/12/05 01:37:49;;;;;;;3.60;2.22;;;15.30;60.30;;;;;;5099256;27;45162;-65
2023/12/05 01:40:16;;;;;;;2.65;1.80;;;15.30;59.80;;;;;;5100306;27;45133;-65
2023/12/05 01:42:43;;;;;;;2.67;1.95;;;15.30;59.60;;;;;;5102555;27;45246;-65
2023/12/05 01:45:12;;;;;;;2.63;1.85;;;15.30;59.50;;;;;;5096867;27;45257;-65
2023/12/05 01:47:41;;;;;;;3.15;2.10;;;15.30;59.30;;;;;;5093864;27;45159;-65
2023/12/05 01:50:10;;;;;;;2.78;1.83;;;15.30;59.00;;;;;;5096741;27;44638;-65
2023/12/05 01:52:38;;;;;;;2.38;1.80;;;15.30;58.50;;;;;;5099032;27;45244;-65
2023/12/05 01:55:06;;;;;;;3.03;2.13;;;15.30;58.80;;;;;;5093118;27;44626;-65
2023/12/05 01:57:34;;;;;;;2.15;1.90;;;15.30;58.40;;;;;;5107610;27;45117;-65
2023/12/05 02:00:04;;;;;;;3.47;2.15;;;15.30;58.20;;;;;;5106623;27;45470;-65
2023/12/05 02:02:32;;;;;;;2.55;1.85;;;15.20;58.40;;;;;;5096835;27;47031;-65
2023/12/05 02:04:59;;;;;;;2.58;1.98;;;15.20;58.30;;;;;;5100685;27;45099;-65
2023/12/05 02:07:26;;;;;;;2.42;1.73;;;15.20;58.20;;;;;;5095693;27;45304;-65
2023/12/05 02:09:53;;;;;;;3.10;2.42;;;15.20;57.90;;;;;;5088467;27;45388;-65
2023/12/05 02:12:19;;;;;;;3.33;1.88;;;15.20;58.00;;;;;;5088346;27;46488;-65
2023/12/05 02:14:46;;;;;;;3.33;2.17;;;15.20;58.10;;;;;;5091459;27;45251;-65
2023/12/05 02:17:18;;;;;;;3.92;2.10;;;15.20;57.70;;;;;;5107382;27;45140;-65
2023/12/05 02:19:58;;;;;;;2.83;2.05;;;15.20;58.00;;;;;;5100739;27;44708;-65
2023/12/05 02:23:02;;;;;;;2.42;1.73;;;15.20;57.90;;;;;;5098412;27;45140;-65
2023/12/05 02:25:40;;;;;;;2.25;1.80;;;15.20;58.00;;;;;;5089585;27;45198;-64
2023/12/05 02:28:10;;;;;;;2.67;1.98;;;15.20;58.00;;;;;;5091819;27;45187;-64
2023/12/05 02:30:37;;;;;;;3.15;1.88;;;15.20;57.90;;;;;;5104921;27;45099;-64
2023/12/05 02:33:04;;;;;;;2.90;2.03;;;15.20;58.10;;;;;;5107071;27;45145;-64
2023/12/05 02:35:31;;;;;;;3.08;2.13;;;15.20;57.70;;;;;;5095657;27;45053;-64
2023/12/05 02:38:10;;;;;;;2.75;1.98;;;15.20;57.80;;;;;;5101159;27;45145;-64
2023/12/05 02:40:42;;;;;;;2.45;2.15;;;15.20;57.80;;;;;;5096690;27;44788;-66
2023/12/05 02:43:12;;;;;;;1.45;1.30;;;15.20;57.60;;;;;;5097155;27;45267;-65
2023/12/05 02:45:41;;;;;;;2.63;1.90;;;15.20;62.90;;;;;;5093767;27;45060;-65
2023/12/05 02:48:11;;;;;;;1.95;1.70;;;15.20;61.70;;;;;;5088940;27;45120;-65
2023/12/05 02:50:38;;;;;;;2.67;1.90;;;15.20;60.10;;;;;;5103993;27;45110;-64
2023/12/05 02:53:04;;;;;;;3.22;2.33;;;15.20;59.20;;;;;;5106659;27;45013;-64
2023/12/05 02:55:31;;;;;;;3.10;2.00;;;15.20;58.90;;;;;;5092553;27;45058;-64
2023/12/05 02:57:58;;;;;;;2.40;2.05;;;15.20;58.70;;;;;;5095653;27;45153;-64
2023/12/05 03:00:27;;;;;;;2.80;1.95;;;15.20;58.30;;;;;;5094829;27;45109;-64
2023/12/05 03:02:53;;;;;;;2.38;1.70;;;15.20;58.20;;;;;;5090306;27;45359;-64
2023/12/05 03:05:20;;;;;;;2.85;2.10;;;15.20;58.10;;;;;;5097209;27;45089;-64
2023/12/05 03:07:47;;;;;;;2.42;1.70;;;15.20;57.90;;;;;;5098176;27;45133;-66
2023/12/05 03:10:14;;;;;;;2.30;1.88;;;15.20;57.80;;;;;;5095436;27;45094;-64
2023/12/05 03:12:40;;;;;;;2.75;2.15;;;15.20;57.70;;;;;;5090951;27;47280;-64
2023/12/05 03:15:08;;;;;;;2.17;1.90;;;15.20;58.90;;;;;;5099854;27;45666;-64
2023/12/05 03:17:37;;;;;;;2.88;1.98;;;15.20;57.80;;;;;;5099676;27;45160;-64
2023/12/05 03:20:05;;;;;;;2.55;1.85;;;15.20;57.60;;;;;;5105339;27;45066;-64
2023/12/05 03:22:31;;;;;;;3.15;1.90;;;15.20;57.50;;;;;;5099237;27;46530;-64
2023/12/05 03:24:58;;;;;;;1.83;1.63;;;15.20;58.80;;;;;;5096297;27;45212;-64
2023/12/05 03:27:25;;;;;;;2.20;1.90;;;15.20;57.50;;;;;;5093388;27;45063;-64
2023/12/05 03:29:52;;;;;;;4.25;2.10;;;15.20;57.50;;;;;;5085608;27;45420;-64
2023/12/05 03:32:18;;;;;;;2.95;2.10;;;15.20;57.50;;;;;;5094844;27;47154;-63
2023/12/05 03:34:49;;;;;;;2.03;1.80;;;15.20;57.30;;;;;;5093038;27;45184;-64
2023/12/05 03:37:15;;;;;;;2.53;2.10;;;15.20;57.00;;;;;;5086700;27;45099;-64
2023/12/05 03:39:42;;;;;;;2.38;1.90;;;15.20;57.00;;;;;;5091176;27;45250;-64
2023/12/05 03:42:09;;;;;;;3.22;1.85;;;15.20;56.90;;;;;;5087774;27;46023;-64
2023/12/05 03:44:36;;;;;;;2.03;1.65;;;15.20;56.80;;;;;;5093097;27;45425;-64
2023/12/05 03:47:03;;;;;;;3.13;2.10;;;15.20;56.90;;;;;;5096972;27;45420;-63
2023/12/05 03:49:30;;;;;;;2.35;1.92;;;15.20;56.70;;;;;;5093673;27;44653;-63
2023/12/05 03:52:01;;;;;;;2.42;1.90;;;15.20;56.80;;;;;;5094611;27;47055;-64
2023/12/05 03:54:28;;;;;;;3.10;2.10;;;15.20;56.80;;;;;;5097948;27;45152;-64
2023/12/05 03:56:55;;;;;;;3.30;2.05;;;15.20;56.70;;;;;;5095206;27;45246;-64
2023/12/05 03:59:21;;;;;;;2.90;2.00;;;15.20;56.60;;;;;;5098117;27;45384;-64
2023/12/05 04:01:48;;;;;;;2.58;1.95;;;15.20;56.80;;;;;;5090497;27;46507;-65
2023/12/05 04:04:15;;;;;;;2.58;1.73;;;15.20;56.60;;;;;;5095049;27;45220;-64
2023/12/05 04:06:42;;;;;;;2.40;1.67;;;15.20;58.10;;;;;;5097941;27;45132;-64
2023/12/05 04:09:10;;;;;;;2.05;1.73;;;15.20;57.00;;;;;;5096327;27;45419;-64
2023/12/05 04:11:38;;;;;;;2.95;2.00;;;15.20;56.80;;;;;;5089697;27;47324;-64
2023/12/05 04:14:04;;;;;;;2.47;1.70;;;15.20;56.70;;;;;;5091232;27;45205;-65
2023/12/05 04:16:31;;;;;;;2.78;1.90;;;15.20;56.60;;;;;;5085691;27;45155;-64
2023/12/05 04:18:58;;;;;;;2.95;2.15;;;15.20;56.40;;;;;;5097277;27;45462;-64
2023/12/05 04:21:25;;;;;;;2.33;1.80;;;15.20;56.70;;;;;;5090137;27;46344;-64
2023/12/05 04:23:52;;;;;;;2.10;1.80;;;15.20;56.40;;;;;;5086950;27;45216;-64
2023/12/05 04:26:21;;;;;;;2.70;1.73;;;15.20;56.50;;;;;;5099687;27;45192;-64
2023/12/05 04:28:48;;;;;;;1.95;1.60;;;15.20;56.30;;;;;;5090686;27;45498;-64
2023/12/05 04:31:15;;;;;;;2.30;1.70;;;15.20;56.20;;;;;;5101197;27;46058;-64
2023/12/05 04:33:43;;;;;;;2.70;1.70;;;15.20;56.00;;;;;;5091996;27;45196;-64
2023/12/05 04:36:11;;;;;;;2.28;1.55;;;15.20;55.80;;;;;;5091449;27;45280;-65
2023/12/05 04:38:38;;;;;;;1.80;1.65;;;15.20;56.00;;;;;;5091481;27;45244;-64
2023/12/05 04:41:05;;;;;;;2.30;1.40;;;15.20;55.90;;;;;;5092397;27;46522;-64
2023/12/05 04:43:33;;;;;;;1.88;1.58;;;15.20;56.10;;;;;;5089750;27;45430;-64
2023/12/05 04:46:00;;;;;;;2.25;1.40;;;15.20;56.20;;;;;;5095798;27;45163;-64
2023/12/05 04:48:27;;;;;;;2.38;1.50;;;15.20;56.20;;;;;;5088950;27;45477;-64
2023/12/05 04:50:53;;;;;;;1.90;1.45;;;15.20;56.20;;;;;;5098729;27;45499;-64
2023/12/05 04:53:20;;;;;;;2.30;1.50;;;15.10;56.20;;;;;;5100321;27;45482;-64
2023/12/05 04:55:47;;;;;;;3.53;1.30;;;15.20;56.20;;;;;;5105090;27;45091;-64
2023/12/05 04:58:14;;;;;;;2.55;1.40;;;15.20;56.20;;;;;;5095812;27;45171;-64
2023/12/05 05:00:43;;;;;;;1.60;1.38;;;15.20;56.40;;;;;;5091800;27;46970;-64
2023/12/05 05:03:11;;;;;;;1.95;1.40;;;15.20;56.40;;;;;;5089431;27;44882;-64
2023/12/05 05:05:38;;;;;;;1.80;1.27;;;15.20;56.50;;;;;;5095318;27;45298;-64
2023/12/05 05:08:05;;;;;;;1.20;1.10;;;15.20;56.40;;;;;;5090881;27;45094;-65
2023/12/05 05:10:32;;;;;;;1.23;1.13;;;15.20;56.40;;;;;;5089739;27;46491;-65
2023/12/05 05:12:59;;;;;;;1.55;1.30;;;15.20;56.40;;;;;;5095923;27;45645;-65
2023/12/05 05:15:26;;;;;;;1.98;1.45;;;15.20;56.40;;;;;;5100470;27;45211;-64
2023/12/05 05:17:54;;;;;;;1.55;1.00;;;15.20;56.40;;;;;;5099811;27;45063;-64
2023/12/05 05:20:21;;;;;;;2.25;1.48;;;15.20;56.30;;;;;;5088839;27;46213;-64
2023/12/05 05:22:48;;;;;;;1.48;1.15;;;15.20;56.60;;;;;;5089384;27;45248;-65
2023/12/05 05:25:15;;;;;;;1.73;1.15;;;15.20;56.00;;;;;;5095748;27;45244;-65
2023/12/05 05:27:42;;;;;;;1.77;1.30;;;15.20;56.40;;;;;;5097579;27;45088;-65
2023/12/05 05:30:10;;;;;;;2.08;1.02;;;15.20;56.30;;;;;;5098727;27;47325;-65
2023/12/05 05:32:37;;;;;;;1.42;1.00;;;15.20;56.50;;;;;;5092280;27;45882;-65
2023/12/05 05:35:06;;;;;;;1.92;1.17;;;15.20;56.70;;;;;;5094001;27;45140;-65
2023/12/05 05:37:33;;;;;;;2.55;1.10;;;15.20;57.40;;;;;;5094280;27;45092;-65
2023/12/05 05:39:59;;;;;;;2.15;1.20;;;15.20;57.90;;;;;;5100126;27;45178;-65
2023/12/05 05:42:26;;;;;;;2.15;1.20;;;15.20;58.10;;;;;;5088901;27;45170;-65
2023/12/05 05:44:53;;;;;;;1.83;1.13;;;15.30;58.30;;;;;;5088953;27;45147;-65
2023/12/05 05:47:19;;;;;;;1.17;0.90;;;15.20;57.90;;;;;;5087718;27;45099;-65
2023/12/05 05:49:47;;;;;;;1.23;1.10;;;15.20;57.50;;;;;;5090106;27;45169;-65
2023/12/05 05:52:15;;;;;;;1.63;1.08;;;15.20;57.20;;;;;;5098072;27;45145;-65
2023/12/05 05:54:42;;;;;;;1.38;0.93;;;15.20;56.70;;;;;;5101766;27;45098;-65
2023/12/05 05:57:09;;;;;;;1.60;1.00;;;15.20;56.50;;;;;;5100183;27;45127;-65
2023/12/05 05:59:36;;;;;;;1.48;1.10;;;15.20;56.10;;;;;;5102565;27;48365;-66
2023/12/05 06:02:06;;;;;;;1.20;1.05;;;15.20;56.00;;;;;;5069154;27;45633;-66
2023/12/05 06:04:47;;;;;;;1.30;1.17;;;15.30;64.00;;;;;;4885833;27;45235;-66
2023/12/05 06:10:00;;;;;;;1.20;0.90;;;15.20;59.10;;;;;;4882117;27;45343;-66
2023/12/05 06:12:39;;;;;;;1.85;1.00;;;15.20;58.40;;;;;;4887274;27;45161;-66
2023/12/05 06:15:27;;;;;;;1.05;0.95;;;15.10;57.50;;;;;;4876925;27;45125;-66
2023/12/05 06:17:55;;;;;;;1.50;1.10;;;15.10;57.10;;;;;;4905543;27;45378;-65
2023/12/05 06:20:24;;;;;;;1.30;0.93;;;15.10;56.90;;;;;;4885945;27;46565;-65
2023/12/05 06:23:14;;;;;;;1.33;0.93;;;15.10;56.80;;;;;;4865223;27;45366;-65
2023/12/05 06:25:42;;;;;;;1.50;1.00;;;15.10;56.60;;;;;;4888338;27;45334;-65
2023/12/05 06:28:21;;;;;;;1.88;1.20;;;15.20;56.60;;;;;;4900590;27;45633;-66
2023/12/05 06:31:13;;;;;;;1.17;0.90;;;15.10;56.50;;;;;;4903269;27;45805;-65
2023/12/05 06:34:22;;;;;;;1.00;0.88;;;15.10;56.90;;;;;;4894108;27;45338;-65
2023/12/05 06:37:13;;;;;;;1.75;0.93;;;15.10;57.20;;;;;;4870912;27;44971;-66
2023/12/05 06:39:56;;;;;;;1.90;1.20;;;15.20;57.70;;;;;;4871559;27;45445;-65
2023/12/05 06:42:25;;;;;;;2.00;0.90;;;15.20;57.80;;;;;;4891610;27;47575;-65
2023/12/05 06:45:00;;;;;;;1.80;0.90;;;15.20;58.10;;;;;;4875289;27;46218;-66
2023/12/05 06:47:32;;;;;;;1.92;1.15;;;15.20;58.50;;;;;;4870460;27;45305;-66
2023/12/05 06:50:19;;;;;;;1.77;0.85;;;15.30;58.60;;;;;;4892456;27;44956;-65
2023/12/05 06:53:16;;;;;;;1.00;0.85;;;15.30;58.60;;;;;;4884342;27;46568;-65
2023/12/05 06:56:28;;;;;;;1.98;1.10;;;15.30;58.80;;;;;;4923038;27;45302;-65
2023/12/05 06:59:07;;;;;;;1.50;0.80;;;15.30;59.10;;;;;;4887336;27;45292;-65
2023/12/05 07:02:18;;;;;;;1.17;0.93;;;15.30;59.20;;;;;;4875331;27;45299;-65
2023/12/05 07:05:11;;;;;;;0.85;0.73;;;15.30;59.20;;;;;;4906953;27;46256;-65
2023/12/05 07:08:09;;;;;;;1.00;0.80;;;15.30;59.40;;;;;;4866809;27;45424;-65
2023/12/05 07:10:39;;;;;;;1.35;0.73;;;15.30;59.50;;;;;;4855369;27;45104;-65
2023/12/05 07:13:08;;;;;;;1.88;0.80;;;15.30;59.50;;;;;;4879944;27;45235;-65
2023/12/05 07:15:34;;;;;;;1.90;0.98;;;15.30;59.60;;;;;;4851900;27;47195;-65
2023/12/05 07:18:03;;;;;;;1.52;0.98;;;15.30;59.70;;;;;;4878274;27;45166;-65
2023/12/05 07:21:02;;;;;;;1.45;0.88;;;15.30;60.00;;;;;;4886318;27;45241;-65
2023/12/05 07:23:29;;;;;;;1.00;0.80;;;15.30;60.10;;;;;;4884647;27;45462;-65
2023/12/05 07:25:56;;;;;;;0.75;0.75;;;15.30;60.10;;;;;;4871913;27;46174;-65
2023/12/05 07:31:26;;;;;;;2.38;0.60;;;15.40;60.40;;;;;;4898637;27;45329;-65
2023/12/05 07:33:54;;;;;;;0.80;0.63;;;15.40;60.40;;;;;;4869339;27;45129;-65
2023/12/05 07:36:40;;;;;;;1.00;0.77;;;15.40;60.50;;;;;;4850689;27;45389;-65
2023/12/05 07:39:33;;;;;;;0.95;0.85;;;15.40;60.70;;;;;;4886835;27;45506;-66
2023/12/05 07:42:34;;;;;;;1.38;0.95;;;15.40;60.70;;;;;;4870002;27;45135;-65
2023/12/05 07:45:24;;;;;;;0.80;0.68;;;15.40;60.80;;;;;;4891910;27;45325;-65
2023/12/05 07:47:52;;;;;;;1.10;0.80;;;15.40;60.80;;;;;;4872635;27;47934;-65
2023/12/05 07:50:29;;;;;;;1.30;0.85;;;15.40;60.80;;;;;;4878982;27;45426;-65
2023/12/05 07:53:08;;;;;;;0.80;0.70;;;15.40;60.80;;;;;;4899394;27;45452;-65
2023/12/05 07:55:35;;;;;;;0.75;0.73;;;15.40;60.90;;;;;;4845352;27;45206;-65
2023/12/05 07:58:16;;;;;;;1.65;0.90;;;15.50;60.90;;;;;;4880900;27;47341;-65
2023/12/05 08:01:09;;;;;;;0.90;0.80;;;15.50;61.00;;;;;;4859983;27;45382;-64
2023/12/05 08:03:39;;;;;;;0.93;0.70;;;15.40;60.90;;;;;;4873640;27;45286;-64
2023/12/05 08:06:06;;;;;;;2.25;0.68;;;15.50;61.10;;;;;;4877755;27;45401;-66
2023/12/05 08:09:03;;;;;;;0.75;0.60;;;15.50;61.10;;;;;;4890444;27;46031;-66
2023/12/05 08:11:30;;;;;;;1.13;0.80;;;15.50;61.00;;;;;;4888273;27;45043;-66
2023/12/05 08:14:11;;;;;;;0.77;0.77;;;15.50;61.20;;;;;;4865419;27;45059;-66
2023/12/05 08:17:09;;;;;;;1.63;0.60;;;15.50;61.20;;;;;;4888451;27;45292;-66
2023/12/05 08:20:06;;;;;;;1.75;0.60;;;15.50;61.30;;;;;;4874113;27;46394;-66
2023/12/05 08:22:55;;;;;;;0.68;0.60;;;15.50;61.40;;;;;;4866417;27;45229;-66
2023/12/05 08:25:33;;;;;;;1.23;0.70;;;15.50;61.50;;;;;;4863588;27;44975;-66
2023/12/05 08:28:00;;;;;;;1.05;0.63;;;15.50;61.60;;;;;;4891852;27;45435;-66
2023/12/05 08:30:43;;;;;;;1.05;0.80;;;15.50;61.40;;;;;;4858180;27;47411;-66
2023/12/05 08:33:23;;;;;;;0.85;0.75;;;15.50;61.70;;;;;;4858643;27;45150;-66
2023/12/05 08:36:14;;;;;;;0.43;0.43;;;15.50;61.70;;;;;;4905974;27;45361;-66
2023/12/05 08:41:25;;;;;;;1.25;0.70;;;15.50;61.80;;;;;;4893121;27;45530;-66
2023/12/05 08:44:02;;;;;;;0.80;0.77;;;15.50;61.80;;;;;;4858178;27;45383;-66
2023/12/05 08:46:42;;;;;;;1.55;0.88;;;15.50;62.20;;;;;;4873905;27;45404;-66
2023/12/05 08:49:33;;;;;;;1.50;0.90;;;15.50;62.10;;;;;;4875973;27;45300;-66
2023/12/05 08:52:01;;;;;;;3.92;0.77;;;15.50;62.30;;;;;;4871256;27;46226;-66
2023/12/05 08:54:46;;;;;;;1.17;0.73;;;15.50;62.40;;;;;;4841125;27;45523;-66
2023/12/05 08:57:34;;;;;;;2.70;0.80;;;15.50;62.40;;;;;;4875148;27;45154;-66
2023/12/05 09:00:03;;;;;;;0.70;0.65;;;15.50;62.70;;;;;;4860277;27;45575;-66
2023/12/05 09:02:38;;;;;;;0.65;0.65;;;15.50;62.60;;;;;;4883884;27;47026;-66
2023/12/05 09:05:08;;;;;;;1.17;0.70;;;15.50;62.60;;;;;;4900719;27;45212;-66
2023/12/05 09:07:38;;;;;;;0.70;0.47;;;15.50;62.70;;;;;;4871467;27;45363;-66
2023/12/05 09:10:06;;;;;;;0.73;0.60;;;15.50;62.60;;;;;;4853892;27;45455;-66
2023/12/05 09:12:41;;;;;;;0.75;0.70;;;15.50;62.50;;;;;;4863218;27;46362;-66
2023/12/05 09:15:11;;;;;;;1.40;0.80;;;15.60;62.60;;;;;;4856059;27;45306;-66
2023/12/05 09:17:50;;;;;;;0.63;0.52;;;15.60;62.50;;;;;;4862898;27;44791;-66
2023/12/05 09:20:58;;;;;;;1.17;0.77;;;15.60;62.50;;;;;;4867744;27;45230;-66
2023/12/05 09:23:45;;;;;;;1.10;0.80;;;15.60;62.40;;;;;;4897985;27;46597;-66
2023/12/05 09:26:41;;;;;;;2.33;0.65;;;15.60;62.40;;;;;;4888777;27;45449;-66
2023/12/05 09:29:08;;;;;;;0.65;0.50;;;15.70;62.40;;;;;;4873838;27;45261;-66
2023/12/05 09:31:56;;;;;;;0.93;0.50;;;15.70;62.50;;;;;;4859945;27;44997;-66
2023/12/05 09:34:23;;;;;;;0.65;0.30;;;15.70;62.40;;;;;;4903980;27;46267;-66
2023/12/05 09:37:08;;;;;;;1.35;0.63;;;15.70;62.30;;;;;;4873831;27;44912;-66
2023/12/05 09:39:38;;;;;;;0.63;0.47;;;15.70;62.40;;;;;;4872155;27;45393;-65
2023/12/05 09:42:25;;;;;;;0.82;0.50;;;15.70;62.40;;;;;;4854291;27;45232;-66
2023/12/05 09:45:21;;;;;;;0.70;0.40;;;15.80;62.70;;;;;;4872140;27;46398;-66
2023/12/05 09:48:06;;;;;;;0.38;0.30;;;15.80;62.70;;;;;;4863793;27;45320;-66
2023/12/05 09:50:54;;;;;;;1.67;0.47;;;15.70;62.60;;;;;;4904388;27;45352;-65
2023/12/05 09:53:54;;;;;;;1.15;0.40;;;15.70;62.50;;;;;;4858790;27;45250;-65
2023/12/05 09:56:32;;;;;;;0.55;0.50;;;15.80;62.80;;;;;;4879183;27;46182;-65
2023/12/05 09:59:03;;;;;;;0.47;0.30;;;15.80;62.80;;;;;;4874659;27;45284;-66
2023/12/05 10:01:47;;;;;;;1.00;0.40;;;15.70;62.80;;;;;;4865675;27;45350;-66
2023/12/05 10:04:33;;;;;;;0.70;0.45;;;15.70;63.10;;;;;;4902497;27;45384;-66
2023/12/05 10:07:18;;;;;;;0.75;0.35;;;15.60;63.20;;;;;;4868140;27;47382;-65
2023/12/05 10:10:03;;;;;;;0.30;0.30;;;15.60;63.30;;;;;;4861778;27;44882;-65
2023/12/05 10:13:09;;;;;;;1.38;0.40;;;15.60;63.60;;;;;;4874491;27;45484;-65
2023/12/05 10:15:36;;;;;;;0.95;0.30;;;15.60;63.50;;;;;;4867141;27;45351;-65
2023/12/05 10:19:02;;;;;;;0.30;0.30;;;15.60;63.70;;;;;;4865944;27;46214;-65
2023/12/05 10:21:28;;;;;;;0.50;0.50;;;15.60;63.70;;;;;;4882496;27;45248;-65
2023/12/05 10:24:09;;;;;;;1.85;0.50;;;15.60;64.80;;;;;;4850832;27;45279;-65
2023/12/05 10:26:51;;;;;;;0.93;0.47;;;15.60;63.80;;;;;;4897505;27;45283;-65
2023/12/05 10:29:46;;;;;;;0.65;0.40;;;15.70;63.80;;;;;;4899615;27;47407;-65
2023/12/05 10:32:32;;;;;;;0.93;0.50;;;15.70;63.80;;;;;;4849657;27;45442;-65
2023/12/05 10:35:30;;;;;;;0.88;0.50;;;15.70;63.80;;;;;;4891087;27;45250;-65
2023/12/05 10:41:00;;;;;;;1.00;0.60;;;15.70;63.80;;;;;;4863534;27;45496;-65
2023/12/05 10:43:38;;;;;;;1.00;0.50;;;15.60;64.10;;;;;;4849094;27;45019;-65
2023/12/05 10:46:44;;;;;;;0.40;0.40;;;15.60;64.10;;;;;;4880930;27;45628;-65
2023/12/05 10:52:42;;;;;;;0.30;0.30;;;15.60;64.20;;;;;;4828218;27;45419;-65
2023/12/05 10:55:37;;;;;;;3.10;0.35;;;15.60;64.30;;;;;;4884957;27;45283;-65
2023/12/05 10:58:35;;;;;;;0.40;0.20;;;15.60;64.30;;;;;;4883894;27;44949;-65
2023/12/05 11:07:33;;;;;;;0.25;0.25;;;15.60;64.30;;;;;;4838228;27;45439;-65
2023/12/05 11:09:59;;;;;;;0.95;0.28;;;15.70;64.30;;;;;;4852507;27;45200;-65
2023/12/05 11:12:43;;;;;;;0.20;0.20;;;15.70;64.30;;;;;;4873808;27;45139;-65
2023/12/05 11:15:29;;;;;;;0.20;0.20;;;15.70;64.20;;;;;;4869547;27;46676;-65
2023/12/05 11:21:46;;;;;;;0.50;0.30;;;15.70;64.20;;;;;;4849232;27;45072;-65
2023/12/05 11:24:59;;;;;;;0.30;0.30;;;15.70;64.30;;;;;;4895954;27;45262;-65
2023/12/05 11:28:13;;;;;;;0.90;0.30;;;15.70;64.40;;;;;;4877550;27;47487;-65
2023/12/05 11:31:36;;;;;;;0.40;0.38;;;15.70;64.50;;;;;;4876722;27;45329;-65
2023/12/05 11:42:14;;;;;;;1.05;0.47;;;15.60;64.70;;;;;;4829780;28;45784;-65
2023/12/05 11:44:43;;;;;;;1.25;0.35;;;15.60;64.90;;;;;;4863678;27;45672;-65
2023/12/05 11:47:13;;;;;;;0.40;0.32;;;15.60;64.80;;;;;;4888502;27;45352;-65
2023/12/05 11:49:53;;;;;;;0.55;0.40;;;15.60;64.80;;;;;;4887532;27;45138;-65
2023/12/05 11:53:07;;;;;;;0.60;0.40;;;15.60;64.90;;;;;;4900193;27;46247;-65
2023/12/05 11:55:36;;;;;;;0.30;0.20;;;15.70;64.90;;;;;;4889508;27;45620;-65
2023/12/05 12:04:36;;;;;;;0.98;0.40;;;15.70;64.90;;;;;;4861139;27;46085;-65
2023/12/05 12:10:06;;;;;;;2.00;1.00;;;15.70;64.90;;;;;;4855222;27;45152;-65
2023/12/05 12:12:33;;;;;;;2.67;0.90;;;15.70;64.90;;;;;;4857800;27;45485;-65
2023/12/05 12:15:00;;;;;;;1.02;0.43;;;15.70;65.00;;;;;;4888953;27;46419;-65
2023/12/05 12:17:55;;;;;;;0.82;0.50;;;15.70;64.90;;;;;;4912267;27;45448;-65
2023/12/05 12:20:54;;;;;;;0.88;0.50;;;15.70;65.00;;;;;;4878411;27;45172;-65
2023/12/05 12:23:43;;;;;;;0.47;0.40;;;15.70;65.10;;;;;;4902716;27;45713;-65
2023/12/05 12:26:14;;;;;;;0.90;0.60;;;15.70;65.20;;;;;;4871495;27;47388;-65
2023/12/05 12:28:41;;;;;;;0.88;0.50;;;15.60;66.50;;;;;;4856520;27;45311;-65
2023/12/05 12:31:26;;;;;;;0.90;0.50;;;15.60;65.30;;;;;;4848824;27;44937;-65
2023/12/05 12:37:12;;;;;;;0.70;0.50;;;15.60;65.60;;;;;;4881638;27;45391;-65
2023/12/05 12:40:00;;;;;;;0.57;0.57;;;15.60;65.60;;;;;;4876434;27;45395;-65
2023/12/05 12:42:39;;;;;;;0.30;0.30;;;15.60;65.60;;;;;;4840471;27;45356;-65
2023/12/05 12:45:27;;;;;;;0.98;0.38;;;15.60;66.00;;;;;;4883695;27;45170;-65
2023/12/05 12:48:04;;;;;;;0.75;0.50;;;15.60;65.60;;;;;;4898840;27;47327;-65
2023/12/05 12:50:32;;;;;;;0.45;0.30;;;15.60;65.90;;;;;;4885661;27;45107;-65
2023/12/05 12:53:00;;;;;;;0.57;0.35;;;15.60;65.90;;;;;;4868734;27;45314;-65
2023/12/05 12:55:55;;;;;;;0.55;0.50;;;15.60;66.00;;;;;;4878728;27;45151;-65
2023/12/05 13:01:26;;;;;;;0.52;0.50;;;15.60;65.70;;;;;;4846504;27;45520;-65
2023/12/05 13:04:06;;;;;;;0.52;0.38;;;15.60;64.70;;;;;;4880876;27;45235;-65
2023/12/05 13:06:50;;;;;;;0.55;0.40;;;15.70;64.80;;;;;;4865809;27;45187;-65
2023/12/05 13:09:43;;;;;;;0.40;0.30;;;15.70;65.30;;;;;;4890296;27;47077;-64
2023/12/05 13:13:05;;;;;;;1.10;0.43;;;15.70;65.40;;;;;;4861429;27;45333;-64
2023/12/05 13:15:33;;;;;;;0.47;0.20;;;15.70;65.50;;;;;;4882364;27;45106;-64
2023/12/05 13:18:16;;;;;;;1.27;0.22;;;15.70;65.40;;;;;;4867746;27;45768;-64
2023/12/05 13:20:52;;;;;;;0.47;0.40;;;15.70;65.50;;;;;;4849909;27;46523;-64
2023/12/05 13:23:22;;;;;;;0.45;0.45;;;15.70;65.60;;;;;;4866546;27;45581;-65
2023/12/05 13:26:20;;;;;;;0.43;0.35;;;15.70;65.70;;;;;;4898857;27;45291;-64
2023/12/05 13:28:47;;;;;;;0.20;0.20;;;15.60;65.80;;;;;;4865374;27;45299;-64
2023/12/05 13:31:35;;;;;;;0.30;0.30;;;15.60;65.80;;;;;;4907518;27;46471;-64
2023/12/05 13:34:03;;;;;;;0.30;0.30;;;15.60;65.90;;;;;;4897964;27;45419;-65
2023/12/05 13:36:52;;;;;;;0.75;0.47;;;15.60;65.90;;;;;;4894055;27;45192;-64
2023/12/05 13:39:46;;;;;;;1.15;0.43;;;15.60;66.10;;;;;;4872754;27;45491;-64
2023/12/05 13:44:53;;;;;;;1.27;0.63;;;15.60;66.00;;;;;;4860733;27;45446;-65
2023/12/05 13:47:43;;;;;;;1.30;0.50;;;15.60;65.70;;;;;;4897733;27;45391;-64
2023/12/05 13:50:31;;;;;;;0.75;0.52;;;15.60;65.40;;;;;;4873412;27;45430;-64
2023/12/05 13:53:08;;;;;;;1.15;0.60;;;15.70;65.30;;;;;;4892036;27;46423;-64
2023/12/05 13:55:36;;;;;;;0.82;0.70;;;15.70;65.20;;;;;;4866905;27;45506;-65
2023/12/05 13:58:03;;;;;;;1.02;0.80;;;15.70;65.00;;;;;;4882112;27;45214;-65
2023/12/05 14:00:29;;;;;;;1.15;0.90;;;15.60;64.20;;;;;;4845879;27;45258;-65
2023/12/05 14:03:18;;;;;;;2.25;0.90;;;15.60;63.80;;;;;;4876692;27;46959;-65
2023/12/05 14:05:58;;;;;;;0.73;0.73;;;15.60;63.90;;;;;;4883654;27;44947;-64
2023/12/05 14:08:29;;;;;;;1.33;0.90;;;15.70;63.90;;;;;;4876062;27;45392;-65
2023/12/05 14:11:27;;;;;;;1.23;1.10;;;15.60;63.80;;;;;;4853515;27;45411;-64
2023/12/05 14:14:13;;;;;;;1.60;1.15;;;15.60;63.70;;;;;;4866437;27;46362;-64
2023/12/05 14:16:41;;;;;;;1.25;1.00;;;15.60;63.80;;;;;;4844931;27;45286;-64
2023/12/05 14:19:34;;;;;;;1.98;1.23;;;15.60;63.60;;;;;;4893168;27;45305;-64
2023/12/05 14:22:01;;;;;;;1.75;1.25;;;15.60;63.70;;;;;;4864700;27;45483;-64